Newfoundland, Pennsylvania
Current Conditions -  °F | °C
As of 9:53 PM on Tuesday 25 Nov 2014 (Local Time) from KMPO Reporting Station
Clear Clear  
Wind Chill: 33°   Ceiling: Unl
Heat Index: 40°   Visibility: 10mi
Dew Point: 26°   Wind: 12mph
Humidity: 58%   Direction: 300°WNW
Pressure: 30.08"   Gusts: NA
Location:  41.31°N, 75.32°W
Report Text: KMPO 260253Z AUTO 30010KT 10SM CLR 04/M03 A3008 RMK AO2 SLP198 T00441033 53013
Loading
Personal Weather Stations






























Interactive Weather Map New forecast layout! Learn more

10-Day Weather Forecast

Advertisements
Track Severe Weather on mobile